Hudson, OH (44236)

2:23 AM EST on February 13, 2016 (GMT -0500)
Western Reserve Academy | | Change Station
CLOSE
Current Station
Personal Weather Station
Location: Hudson, OH
Elevation: 1125 ft
Nearby Weather Stations

Elev 1125 ft 41.25 °N, 81.44 °W | Updated 13 seconds ago

Snow
Snow
10.5 °F
Feels Like 3 °F
N
4.0
Wind Variable Wind from WNW

Today
High -- | Low -- °F
--% Chance of Precip.
Yesterday
High -- | Low -- °F
Precip. -- in
Pressure 30.14 in
Visibility 0.8 miles
Clouds Overcast 900 ft
Windchill 3 °F
Dew Point 8 °F
Humidity 89%
Rainfall 0.00 in
Snow Depth Not available.
7:23 AM 5:56 PM
Waxing Crescent, 28% visible
METAR KPOV 130719Z AUTO 32011KT 3/4SM SN OVC009 M12/M15 A3014 RMK AO2 T11231151
Pressure 30.14 in
Visibility 0.8 miles
Clouds Overcast 900 ft
Windchill 3 °F
Dew Point 8 °F
Humidity 89%
Rainfall 0.00 in
Snow Depth Not available.
7:23 AM 5:56 PM
Waxing Crescent, 28% visible
METAR KPOV 130719Z AUTO 32011KT 3/4SM SN OVC009 M12/M15 A3014 RMK AO2 T11231151

10-Day Weather Forecast

Almanac

Astronomy

Feb. 13, 2016 Rise Set
Actual Time
Civil Twilight
Nautical Twilight
Astronomical Twilight
Moon
Length of Visible Light
Length of Day
Tomorrow will be .
, % of the Moon is Illuminated

Today's Extremes

State Highs State Lows

Community

WunderPhotos

Upload Photos

1,892,526 photos uploaded!

WunderBlog® & News

Nearby

Air Quality

  Air Quality AQ Index Pollutant
Not available.

Snow Depth

Station Depth Elevation

Earthquake Activity

City Distance Mag. Time & Date
Minimum magnitude displayed is 2.5.

Coastal Water Temperatures

Place Temperature

Stations

Nearby Weather Stations

Station Location Temp. Windchill Dew Point Humidity Wind Precip. Elev Updated Type
                   

Watches & Warnings

Wind Chill Advisory
Issued: 9:43 PM EST Feb. 12, 2016 – National Weather Service

... Wind Chill Advisory remains in effect until 10 am EST Sunday...

* wind chill... wind chills will dip below minus 10to minus 15
tonight. Wind chills may briefly climb above minus 10 on
Saturday but will fall back below minus 10 Saturday night.

* Impacts... dangerous wind chills can result in frostbite or
hypothermia in minutes. Frigid temperatures could freeze water
pipes.

* Winds... northwest 15 to 25 mph with gusts up to 30 mph.

* Temperatures... lows tonight from zero to 5 above with highs
Saturday from 10 to 15 degrees. Lows Saturday night could be
as cold as minus 10 at traditional cold spots.

Precautionary/preparedness actions... a Wind Chill Advisory is
issued when strong wind will combine with cold temperatures to
create dangerously cold conditions for exposed skin. The wind
will make it feel like it is 10 degrees below zero or colder for
a period of several hours. If you will be outdoors use common
sense and dress warmly... making sure that all exposed skin is
covered. Stay tuned to weather radio for further details or
updates.



Oudeman